sensor_id;sensor_type;location;lat;lon;timestamp;P1;durP1;ratioP1;P2;durP2;ratioP2
18001;SDS011;9126;48.160;17.130;2022-09-20T00:01:27;2.60;;;1.80;;
18001;SDS011;9126;48.160;17.130;2022-09-20T00:03:56;2.10;;;1.37;;
18001;SDS011;9126;48.160;17.130;2022-09-20T00:06:26;2.47;;;2.00;;
18001;SDS011;9126;48.160;17.130;2022-09-20T00:08:54;2.67;;;1.67;;
18001;SDS011;9126;48.160;17.130;2022-09-20T00:11:22;3.23;;;1.70;;
18001;SDS011;9126;48.160;17.130;2022-09-20T00:13:51;2.70;;;1.80;;
18001;SDS011;9126;48.160;17.130;2022-09-20T00:16:22;2.23;;;1.63;;
18001;SDS011;9126;48.160;17.130;2022-09-20T00:18:51;2.80;;;1.80;;
18001;SDS011;9126;48.160;17.130;2022-09-20T00:21:19;2.00;;;1.63;;
18001;SDS011;9126;48.160;17.130;2022-09-20T00:23:48;2.80;;;1.77;;
18001;SDS011;9126;48.160;17.130;2022-09-20T00:26:17;2.50;;;1.53;;
18001;SDS011;9126;48.160;17.130;2022-09-20T00:28:45;2.03;;;1.63;;
18001;SDS011;9126;48.160;17.130;2022-09-20T00:31:12;2.57;;;1.60;;
18001;SDS011;9126;48.160;17.130;2022-09-20T00:33:42;2.70;;;1.80;;
18001;SDS011;9126;48.160;17.130;2022-09-20T00:36:26;2.60;;;1.47;;
18001;SDS011;9126;48.160;17.130;2022-09-20T00:38:54;2.23;;;1.63;;
18001;SDS011;9126;48.160;17.130;2022-09-20T00:41:21;3.97;;;1.73;;
18001;SDS011;9126;48.160;17.130;2022-09-20T00:43:48;4.63;;;1.70;;
18001;SDS011;9126;48.160;17.130;2022-09-20T00:46:18;1.93;;;1.50;;
18001;SDS011;9126;48.160;17.130;2022-09-20T00:48:51;3.03;;;1.80;;
18001;SDS011;9126;48.160;17.130;2022-09-20T00:51:25;3.20;;;1.70;;
18001;SDS011;9126;48.160;17.130;2022-09-20T00:53:56;3.00;;;1.83;;
18001;SDS011;9126;48.160;17.130;2022-09-20T00:56:28;2.00;;;1.60;;
18001;SDS011;9126;48.160;17.130;2022-09-20T00:58:58;3.43;;;2.07;;
18001;SDS011;9126;48.160;17.130;2022-09-20T01:01:30;5.00;;;2.00;;
18001;SDS011;9126;48.160;17.130;2022-09-20T01:03:58;7.33;;;1.80;;
18001;SDS011;9126;48.160;17.130;2022-09-20T01:06:26;3.73;;;2.03;;
18001;SDS011;9126;48.160;17.130;2022-09-20T01:08:53;1.87;;;1.70;;
18001;SDS011;9126;48.160;17.130;2022-09-20T01:11:25;3.63;;;1.87;;
18001;SDS011;9126;48.160;17.130;2022-09-20T01:13:57;2.70;;;1.67;;
18001;SDS011;9126;48.160;17.130;2022-09-20T01:16:24;2.30;;;1.60;;
18001;SDS011;9126;48.160;17.130;2022-09-20T01:18:53;3.43;;;1.87;;
18001;SDS011;9126;48.160;17.130;2022-09-20T01:21:25;2.80;;;2.03;;
18001;SDS011;9126;48.160;17.130;2022-09-20T01:23:54;3.33;;;1.90;;
18001;SDS011;9126;48.160;17.130;2022-09-20T01:26:37;2.90;;;2.10;;
18001;SDS011;9126;48.160;17.130;2022-09-20T01:29:36;4.13;;;2.10;;
18001;SDS011;9126;48.160;17.130;2022-09-20T01:32:14;2.30;;;1.93;;
18001;SDS011;9126;48.160;17.130;2022-09-20T01:34:45;2.10;;;2.00;;
18001;SDS011;9126;48.160;17.130;2022-09-20T01:37:18;2.47;;;1.80;;
18001;SDS011;9126;48.160;17.130;2022-09-20T01:39:52;2.60;;;1.90;;
18001;SDS011;9126;48.160;17.130;2022-09-20T01:42:30;2.37;;;2.13;;
18001;SDS011;9126;48.160;17.130;2022-09-20T01:45:02;3.40;;;2.20;;
18001;SDS011;9126;48.160;17.130;2022-09-20T01:47:37;3.67;;;2.40;;
18001;SDS011;9126;48.160;17.130;2022-09-20T01:50:12;2.50;;;2.13;;
18001;SDS011;9126;48.160;17.130;2022-09-20T01:55:57;2.53;;;1.93;;
18001;SDS011;9126;48.160;17.130;2022-09-20T01:58:46;3.57;;;2.30;;
18001;SDS011;9126;48.160;17.130;2022-09-20T02:01:49;2.97;;;1.90;;
18001;SDS011;9126;48.160;17.130;2022-09-20T02:04:38;4.67;;;2.00;;
18001;SDS011;9126;48.160;17.130;2022-09-20T02:10:34;3.30;;;2.33;;
18001;SDS011;9126;48.160;17.130;2022-09-20T02:13:15;5.57;;;2.43;;
18001;SDS011;9126;48.160;17.130;2022-09-20T02:16:04;2.50;;;2.27;;
18001;SDS011;9126;48.160;17.130;2022-09-20T02:18:55;3.93;;;2.40;;
18001;SDS011;9126;48.160;17.130;2022-09-20T02:21:54;2.60;;;2.30;;
18001;SDS011;9126;48.160;17.130;2022-09-20T02:24:37;2.80;;;2.23;;
18001;SDS011;9126;48.160;17.130;2022-09-20T02:27:13;3.13;;;2.30;;
18001;SDS011;9126;48.160;17.130;2022-09-20T02:29:52;2.63;;;2.43;;
18001;SDS011;9126;48.160;17.130;2022-09-20T02:32:34;3.17;;;2.50;;
18001;SDS011;9126;48.160;17.130;2022-09-20T02:35:20;3.07;;;2.20;;
18001;SDS011;9126;48.160;17.130;2022-09-20T02:38:00;2.83;;;2.53;;
18001;SDS011;9126;48.160;17.130;2022-09-20T02:40:45;3.10;;;2.60;;
18001;SDS011;9126;48.160;17.130;2022-09-20T02:43:37;2.93;;;2.43;;
18001;SDS011;9126;48.160;17.130;2022-09-20T02:46:11;3.70;;;2.10;;
18001;SDS011;9126;48.160;17.130;2022-09-20T02:48:44;2.80;;;2.20;;
18001;SDS011;9126;48.160;17.130;2022-09-20T02:51:23;3.00;;;2.30;;
18001;SDS011;9126;48.160;17.130;2022-09-20T02:53:58;4.77;;;2.33;;
18001;SDS011;9126;48.160;17.130;2022-09-20T02:56:36;3.17;;;2.27;;
18001;SDS011;9126;48.160;17.130;2022-09-20T02:59:13;4.63;;;2.60;;
18001;SDS011;9126;48.160;17.130;2022-09-20T03:01:51;3.50;;;2.40;;
18001;SDS011;9126;48.160;17.130;2022-09-20T03:04:32;3.27;;;2.43;;
18001;SDS011;9126;48.160;17.130;2022-09-20T03:07:14;4.80;;;2.40;;
18001;SDS011;9126;48.160;17.130;2022-09-20T03:09:50;3.77;;;2.63;;
18001;SDS011;9126;48.160;17.130;2022-09-20T03:12:28;3.07;;;2.80;;
18001;SDS011;9126;48.160;17.130;2022-09-20T03:15:09;3.33;;;2.30;;
18001;SDS011;9126;48.160;17.130;2022-09-20T03:17:46;5.30;;;2.20;;
18001;SDS011;9126;48.160;17.130;2022-09-20T03:20:28;2.80;;;1.63;;
18001;SDS011;9126;48.160;17.130;2022-09-20T03:23:12;2.23;;;2.10;;
18001;SDS011;9126;48.160;17.130;2022-09-20T03:25:52;2.33;;;1.90;;
18001;SDS011;9126;48.160;17.130;2022-09-20T03:28:30;2.07;;;1.80;;
18001;SDS011;9126;48.160;17.130;2022-09-20T03:31:06;2.23;;;1.57;;
18001;SDS011;9126;48.160;17.130;2022-09-20T03:33:44;3.33;;;1.93;;
18001;SDS011;9126;48.160;17.130;2022-09-20T03:36:25;2.77;;;1.77;;
18001;SDS011;9126;48.160;17.130;2022-09-20T03:39:10;2.30;;;1.90;;
18001;SDS011;9126;48.160;17.130;2022-09-20T03:41:58;3.43;;;2.37;;
18001;SDS011;9126;48.160;17.130;2022-09-20T03:44:41;2.77;;;2.20;;
18001;SDS011;9126;48.160;17.130;2022-09-20T03:47:40;4.37;;;2.03;;
18001;SDS011;9126;48.160;17.130;2022-09-20T03:50:28;3.80;;;2.10;;
18001;SDS011;9126;48.160;17.130;2022-09-20T03:53:20;4.67;;;2.20;;
18001;SDS011;9126;48.160;17.130;2022-09-20T04:02:35;3.13;;;2.40;;
18001;SDS011;9126;48.160;17.130;2022-09-20T04:05:21;3.90;;;2.60;;
18001;SDS011;9126;48.160;17.130;2022-09-20T04:07:54;4.33;;;2.70;;
18001;SDS011;9126;48.160;17.130;2022-09-20T04:10:39;4.43;;;2.30;;
18001;SDS011;9126;48.160;17.130;2022-09-20T04:18:49;4.77;;;2.50;;
18001;SDS011;9126;48.160;17.130;2022-09-20T04:21:24;3.27;;;2.40;;
18001;SDS011;9126;48.160;17.130;2022-09-20T04:23:59;5.10;;;2.43;;
18001;SDS011;9126;48.160;17.130;2022-09-20T04:26:30;2.90;;;2.67;;
18001;SDS011;9126;48.160;17.130;2022-09-20T04:31:54;2.90;;;2.53;;
18001;SDS011;9126;48.160;17.130;2022-09-20T04:34:27;4.03;;;2.80;;
18001;SDS011;9126;48.160;17.130;2022-09-20T04:37:18;4.10;;;2.40;;
18001;SDS011;9126;48.160;17.130;2022-09-20T04:39:54;3.00;;;2.47;;
18001;SDS011;9126;48.160;17.130;2022-09-20T04:42:30;3.80;;;2.57;;
18001;SDS011;9126;48.160;17.130;2022-09-20T04:45:25;3.37;;;2.43;;
18001;SDS011;9126;48.160;17.130;2022-09-20T04:48:20;3.10;;;2.57;;
18001;SDS011;9126;48.160;17.130;2022-09-20T04:51:25;4.93;;;2.87;;
18001;SDS011;9126;48.160;17.130;2022-09-20T04:54:34;4.67;;;2.90;;
18001;SDS011;9126;48.160;17.130;2022-09-20T04:57:35;3.73;;;3.23;;
18001;SDS011;9126;48.160;17.130;2022-09-20T05:00:32;3.43;;;2.40;;
18001;SDS011;9126;48.160;17.130;2022-09-20T05:03:25;4.87;;;2.90;;
18001;SDS011;9126;48.160;17.130;2022-09-20T05:06:12;2.47;;;2.23;;
18001;SDS011;9126;48.160;17.130;2022-09-20T05:09:09;2.60;;;2.40;;
18001;SDS011;9126;48.160;17.130;2022-09-20T05:12:01;2.47;;;2.27;;
18001;SDS011;9126;48.160;17.130;2022-09-20T05:15:04;2.43;;;2.17;;
18001;SDS011;9126;48.160;17.130;2022-09-20T05:17:41;4.63;;;2.13;;
18001;SDS011;9126;48.160;17.130;2022-09-20T05:20:41;2.77;;;2.17;;
18001;SDS011;9126;48.160;17.130;2022-09-20T05:23:36;3.20;;;2.10;;
18001;SDS011;9126;48.160;17.130;2022-09-20T05:26:25;3.07;;;2.03;;
18001;SDS011;9126;48.160;17.130;2022-09-20T05:29:01;2.00;;;1.80;;
18001;SDS011;9126;48.160;17.130;2022-09-20T05:31:36;3.10;;;1.83;;
18001;SDS011;9126;48.160;17.130;2022-09-20T05:34:10;2.10;;;1.90;;
18001;SDS011;9126;48.160;17.130;2022-09-20T05:36:48;2.00;;;1.80;;
18001;SDS011;9126;48.160;17.130;2022-09-20T05:39:25;2.77;;;1.60;;
18001;SDS011;9126;48.160;17.130;2022-09-20T05:42:01;3.07;;;2.20;;
18001;SDS011;9126;48.160;17.130;2022-09-20T05:44:43;2.93;;;2.50;;
18001;SDS011;9126;48.160;17.130;2022-09-20T05:47:23;1.83;;;1.70;;
18001;SDS011;9126;48.160;17.130;2022-09-20T05:50:07;2.47;;;2.10;;
18001;SDS011;9126;48.160;17.130;2022-09-20T05:52:46;2.10;;;1.57;;
18001;SDS011;9126;48.160;17.130;2022-09-20T05:55:24;1.70;;;1.60;;
18001;SDS011;9126;48.160;17.130;2022-09-20T05:57:58;4.87;;;1.87;;
18001;SDS011;9126;48.160;17.130;2022-09-20T06:00:38;3.87;;;1.80;;
18001;SDS011;9126;48.160;17.130;2022-09-20T06:03:12;2.27;;;1.40;;
18001;SDS011;9126;48.160;17.130;2022-09-20T06:05:48;2.67;;;1.90;;
18001;SDS011;9126;48.160;17.130;2022-09-20T06:08:30;3.47;;;1.57;;
18001;SDS011;9126;48.160;17.130;2022-09-20T06:11:09;2.63;;;1.87;;
18001;SDS011;9126;48.160;17.130;2022-09-20T06:13:46;3.40;;;1.40;;
18001;SDS011;9126;48.160;17.130;2022-09-20T06:16:27;1.53;;;1.43;;
18001;SDS011;9126;48.160;17.130;2022-09-20T06:19:05;2.83;;;1.60;;
18001;SDS011;9126;48.160;17.130;2022-09-20T06:21:49;2.23;;;1.60;;
18001;SDS011;9126;48.160;17.130;2022-09-20T06:24:31;3.50;;;1.70;;
18001;SDS011;9126;48.160;17.130;2022-09-20T06:27:05;4.27;;;1.33;;
18001;SDS011;9126;48.160;17.130;2022-09-20T06:29:39;2.53;;;1.73;;
18001;SDS011;9126;48.160;17.130;2022-09-20T06:32:14;1.90;;;1.00;;
18001;SDS011;9126;48.160;17.130;2022-09-20T06:34:42;2.63;;;1.60;;
18001;SDS011;9126;48.160;17.130;2022-09-20T06:37:13;1.77;;;1.10;;
18001;SDS011;9126;48.160;17.130;2022-09-20T06:40:13;2.20;;;1.23;;
18001;SDS011;9126;48.160;17.130;2022-09-20T06:43:07;3.17;;;1.27;;
18001;SDS011;9126;48.160;17.130;2022-09-20T06:45:38;1.70;;;1.20;;
18001;SDS011;9126;48.160;17.130;2022-09-20T06:48:05;1.43;;;1.33;;
18001;SDS011;9126;48.160;17.130;2022-09-20T06:50:33;2.07;;;1.20;;
18001;SDS011;9126;48.160;17.130;2022-09-20T06:53:02;1.20;;;1.10;;
18001;SDS011;9126;48.160;17.130;2022-09-20T06:55:31;16.60;;;2.23;;
18001;SDS011;9126;48.160;17.130;2022-09-20T06:58:03;9.83;;;1.80;;
18001;SDS011;9126;48.160;17.130;2022-09-20T07:00:30;2.10;;;1.20;;
18001;SDS011;9126;48.160;17.130;2022-09-20T07:02:57;2.27;;;1.03;;
18001;SDS011;9126;48.160;17.130;2022-09-20T07:05:24;2.10;;;1.00;;
18001;SDS011;9126;48.160;17.130;2022-09-20T07:07:54;1.33;;;1.20;;
18001;SDS011;9126;48.160;17.130;2022-09-20T07:10:24;3.40;;;1.40;;
18001;SDS011;9126;48.160;17.130;2022-09-20T07:12:54;1.73;;;0.93;;
18001;SDS011;9126;48.160;17.130;2022-09-20T07:15:23;0.70;;;0.70;;
18001;SDS011;9126;48.160;17.130;2022-09-20T07:17:50;3.23;;;0.93;;
18001;SDS011;9126;48.160;17.130;2022-09-20T07:20:17;1.23;;;0.90;;
18001;SDS011;9126;48.160;17.130;2022-09-20T07:22:45;0.73;;;0.60;;
18001;SDS011;9126;48.160;17.130;2022-09-20T07:25:12;1.93;;;0.80;;
18001;SDS011;9126;48.160;17.130;2022-09-20T07:27:41;2.13;;;0.93;;
18001;SDS011;9126;48.160;17.130;2022-09-20T07:30:11;0.63;;;0.63;;
18001;SDS011;9126;48.160;17.130;2022-09-20T07:32:39;1.43;;;0.73;;
18001;SDS011;9126;48.160;17.130;2022-09-20T07:35:06;1.17;;;0.80;;
18001;SDS011;9126;48.160;17.130;2022-09-20T07:37:34;1.13;;;0.73;;
18001;SDS011;9126;48.160;17.130;2022-09-20T07:40:01;5.77;;;0.87;;
18001;SDS011;9126;48.160;17.130;2022-09-20T07:42:29;1.33;;;0.80;;
18001;SDS011;9126;48.160;17.130;2022-09-20T07:44:58;2.97;;;0.70;;
18001;SDS011;9126;48.160;17.130;2022-09-20T07:47:27;1.43;;;0.77;;
18001;SDS011;9126;48.160;17.130;2022-09-20T07:49:59;5.30;;;1.10;;
18001;SDS011;9126;48.160;17.130;2022-09-20T07:52:27;2.10;;;1.80;;
18001;SDS011;9126;48.160;17.130;2022-09-20T07:54:54;1.53;;;1.10;;
18001;SDS011;9126;48.160;17.130;2022-09-20T07:57:21;9.70;;;1.93;;
18001;SDS011;9126;48.160;17.130;2022-09-20T07:59:49;3.47;;;1.53;;
18001;SDS011;9126;48.160;17.130;2022-09-20T08:02:17;5.03;;;1.20;;
18001;SDS011;9126;48.160;17.130;2022-09-20T08:04:44;0.83;;;0.70;;
18001;SDS011;9126;48.160;17.130;2022-09-20T08:07:14;6.80;;;1.10;;
18001;SDS011;9126;48.160;17.130;2022-09-20T08:09:41;9.93;;;1.07;;
18001;SDS011;9126;48.160;17.130;2022-09-20T08:12:08;2.40;;;0.80;;
18001;SDS011;9126;48.160;17.130;2022-09-20T08:14:35;2.60;;;0.73;;
18001;SDS011;9126;48.160;17.130;2022-09-20T08:17:02;3.07;;;0.90;;
18001;SDS011;9126;48.160;17.130;2022-09-20T08:19:30;0.83;;;0.73;;
18001;SDS011;9126;48.160;17.130;2022-09-20T08:21:57;1.40;;;0.90;;
18001;SDS011;9126;48.160;17.130;2022-09-20T08:24:24;2.83;;;1.00;;
18001;SDS011;9126;48.160;17.130;2022-09-20T08:26:51;4.47;;;1.20;;
18001;SDS011;9126;48.160;17.130;2022-09-20T08:29:18;1.97;;;0.90;;
18001;SDS011;9126;48.160;17.130;2022-09-20T08:31:45;1.63;;;1.10;;
18001;SDS011;9126;48.160;17.130;2022-09-20T08:34:14;1.50;;;0.90;;
18001;SDS011;9126;48.160;17.130;2022-09-20T08:36:45;6.30;;;0.93;;
18001;SDS011;9126;48.160;17.130;2022-09-20T08:39:16;4.40;;;0.90;;
18001;SDS011;9126;48.160;17.130;2022-09-20T08:41:45;6.50;;;1.27;;
18001;SDS011;9126;48.160;17.130;2022-09-20T08:44:20;1.50;;;0.80;;
18001;SDS011;9126;48.160;17.130;2022-09-20T08:46:51;0.87;;;0.77;;
18001;SDS011;9126;48.160;17.130;2022-09-20T08:49:27;1.73;;;1.07;;
18001;SDS011;9126;48.160;17.130;2022-09-20T08:52:00;2.30;;;0.97;;
18001;SDS011;9126;48.160;17.130;2022-09-20T08:54:30;4.47;;;2.03;;
18001;SDS011;9126;48.160;17.130;2022-09-20T08:57:01;1.65;;;1.05;;
18001;SDS011;9126;48.160;17.130;2022-09-20T08:59:31;2.75;;;0.73;;
18001;SDS011;9126;48.160;17.130;2022-09-20T09:01:59;3.58;;;0.85;;
18001;SDS011;9126;48.160;17.130;2022-09-20T09:04:30;7.45;;;1.20;;
18001;SDS011;9126;48.160;17.130;2022-09-20T09:07:03;1.25;;;0.80;;
18001;SDS011;9126;48.160;17.130;2022-09-20T09:09:32;1.85;;;0.73;;
18001;SDS011;9126;48.160;17.130;2022-09-20T09:12:02;1.55;;;0.70;;
18001;SDS011;9126;48.160;17.130;2022-09-20T09:14:30;1.33;;;0.70;;
18001;SDS011;9126;48.160;17.130;2022-09-20T09:17:17;0.90;;;0.60;;
18001;SDS011;9126;48.160;17.130;2022-09-20T09:19:46;2.37;;;0.80;;
18001;SDS011;9126;48.160;17.130;2022-09-20T09:22:19;2.45;;;0.70;;
18001;SDS011;9126;48.160;17.130;2022-09-20T09:25:08;2.20;;;0.68;;
18001;SDS011;9126;48.160;17.130;2022-09-20T09:27:52;1.05;;;0.73;;
18001;SDS011;9126;48.160;17.130;2022-09-20T09:30:24;2.53;;;0.80;;
18001;SDS011;9126;48.160;17.130;2022-09-20T09:35:58;1.75;;;0.90;;
18001;SDS011;9126;48.160;17.130;2022-09-20T09:38:32;3.05;;;0.75;;
18001;SDS011;9126;48.160;17.130;2022-09-20T09:41:02;2.53;;;0.90;;
18001;SDS011;9126;48.160;17.130;2022-09-20T09:43:31;1.50;;;1.00;;
18001;SDS011;9126;48.160;17.130;2022-09-20T09:46:15;0.50;;;0.50;;
18001;SDS011;9126;48.160;17.130;2022-09-20T09:48:45;1.07;;;0.40;;
18001;SDS011;9126;48.160;17.130;2022-09-20T09:51:15;0.57;;;0.57;;
18001;SDS011;9126;48.160;17.130;2022-09-20T09:53:45;0.63;;;0.50;;
18001;SDS011;9126;48.160;17.130;2022-09-20T09:56:22;0.80;;;0.57;;
18001;SDS011;9126;48.160;17.130;2022-09-20T09:59:08;1.20;;;0.60;;
18001;SDS011;9126;48.160;17.130;2022-09-20T10:01:47;0.67;;;0.50;;
18001;SDS011;9126;48.160;17.130;2022-09-20T10:04:25;0.50;;;0.50;;
18001;SDS011;9126;48.160;17.130;2022-09-20T10:07:02;5.03;;;0.70;;
18001;SDS011;9126;48.160;17.130;2022-09-20T10:09:40;1.20;;;0.70;;
18001;SDS011;9126;48.160;17.130;2022-09-20T10:12:27;1.33;;;0.87;;
18001;SDS011;9126;48.160;17.130;2022-09-20T10:15:13;1.10;;;0.80;;
18001;SDS011;9126;48.160;17.130;2022-09-20T10:18:12;4.70;;;0.80;;
18001;SDS011;9126;48.160;17.130;2022-09-20T10:21:07;0.97;;;0.60;;
18001;SDS011;9126;48.160;17.130;2022-09-20T10:29:30;0.63;;;0.53;;
18001;SDS011;9126;48.160;17.130;2022-09-20T10:32:11;1.70;;;1.00;;
18001;SDS011;9126;48.160;17.130;2022-09-20T10:34:52;1.13;;;0.70;;
18001;SDS011;9126;48.160;17.130;2022-09-20T10:37:30;1.27;;;0.93;;
18001;SDS011;9126;48.160;17.130;2022-09-20T10:40:09;0.97;;;0.60;;
18001;SDS011;9126;48.160;17.130;2022-09-20T10:42:50;1.47;;;0.80;;
18001;SDS011;9126;48.160;17.130;2022-09-20T10:45:40;1.23;;;0.60;;
18001;SDS011;9126;48.160;17.130;2022-09-20T10:48:16;1.47;;;0.90;;
18001;SDS011;9126;48.160;17.130;2022-09-20T10:50:53;1.17;;;0.60;;
18001;SDS011;9126;48.160;17.130;2022-09-20T10:53:28;0.93;;;0.93;;
18001;SDS011;9126;48.160;17.130;2022-09-20T10:56:07;2.10;;;1.00;;
18001;SDS011;9126;48.160;17.130;2022-09-20T10:58:53;1.23;;;0.70;;
18001;SDS011;9126;48.160;17.130;2022-09-20T11:01:44;1.87;;;1.27;;
18001;SDS011;9126;48.160;17.130;2022-09-20T11:04:33;1.10;;;0.70;;
18001;SDS011;9126;48.160;17.130;2022-09-20T11:07:22;1.23;;;0.63;;
18001;SDS011;9126;48.160;17.130;2022-09-20T11:10:00;1.00;;;0.70;;
18001;SDS011;9126;48.160;17.130;2022-09-20T11:12:33;1.25;;;0.80;;
18001;SDS011;9126;48.160;17.130;2022-09-20T11:15:13;3.63;;;0.60;;
18001;SDS011;9126;48.160;17.130;2022-09-20T11:17:44;0.70;;;0.70;;
18001;SDS011;9126;48.160;17.130;2022-09-20T11:20:18;1.87;;;0.70;;
18001;SDS011;9126;48.160;17.130;2022-09-20T11:22:51;1.50;;;0.60;;
18001;SDS011;9126;48.160;17.130;2022-09-20T11:25:24;3.00;;;1.10;;
18001;SDS011;9126;48.160;17.130;2022-09-20T11:28:00;2.83;;;0.93;;
18001;SDS011;9126;48.160;17.130;2022-09-20T11:30:36;0.90;;;0.87;;
18001;SDS011;9126;48.160;17.130;2022-09-20T11:33:12;1.20;;;1.10;;
18001;SDS011;9126;48.160;17.130;2022-09-20T11:35:48;1.03;;;0.80;;
18001;SDS011;9126;48.160;17.130;2022-09-20T11:38:20;0.70;;;0.60;;
18001;SDS011;9126;48.160;17.130;2022-09-20T11:40:51;0.67;;;0.67;;
18001;SDS011;9126;48.160;17.130;2022-09-20T11:43:23;0.65;;;0.65;;
18001;SDS011;9126;48.160;17.130;2022-09-20T11:45:55;0.40;;;0.40;;
18001;SDS011;9126;48.160;17.130;2022-09-20T11:48:27;2.33;;;0.60;;
18001;SDS011;9126;48.160;17.130;2022-09-20T11:51:06;1.17;;;0.77;;
18001;SDS011;9126;48.160;17.130;2022-09-20T11:53:51;0.60;;;0.60;;
18001;SDS011;9126;48.160;17.130;2022-09-20T11:56:28;2.33;;;0.80;;
18001;SDS011;9126;48.160;17.130;2022-09-20T11:58:58;3.17;;;0.80;;
18001;SDS011;9126;48.160;17.130;2022-09-20T12:01:29;1.30;;;0.50;;
18001;SDS011;9126;48.160;17.130;2022-09-20T12:04:00;0.70;;;0.50;;
18001;SDS011;9126;48.160;17.130;2022-09-20T12:06:32;0.40;;;0.40;;
18001;SDS011;9126;48.160;17.130;2022-09-20T12:09:02;0.77;;;0.60;;
18001;SDS011;9126;48.160;17.130;2022-09-20T12:11:32;0.60;;;0.60;;
18001;SDS011;9126;48.160;17.130;2022-09-20T12:14:03;0.50;;;0.50;;
18001;SDS011;9126;48.160;17.130;2022-09-20T12:16:37;2.33;;;0.63;;
18001;SDS011;9126;48.160;17.130;2022-09-20T12:19:07;0.68;;;0.60;;
18001;SDS011;9126;48.160;17.130;2022-09-20T12:27:55;1.52;;;0.80;;
18001;SDS011;9126;48.160;17.130;2022-09-20T12:30:23;0.75;;;0.50;;
18001;SDS011;9126;48.160;17.130;2022-09-20T12:32:56;4.05;;;0.77;;
18001;SDS011;9126;48.160;17.130;2022-09-20T12:38:31;1.15;;;0.60;;
18001;SDS011;9126;48.160;17.130;2022-09-20T12:41:14;0.90;;;0.68;;
18001;SDS011;9126;48.160;17.130;2022-09-20T12:43:49;0.93;;;0.40;;
18001;SDS011;9126;48.160;17.130;2022-09-20T12:46:30;0.40;;;0.40;;
18001;SDS011;9126;48.160;17.130;2022-09-20T12:52:22;0.40;;;0.40;;
18001;SDS011;9126;48.160;17.130;2022-09-20T12:55:28;0.40;;;0.40;;
18001;SDS011;9126;48.160;17.130;2022-09-20T12:58:06;0.40;;;0.40;;
18001;SDS011;9126;48.160;17.130;2022-09-20T13:10:19;1.38;;;0.38;;
18001;SDS011;9126;48.160;17.130;2022-09-20T13:13:01;0.80;;;0.50;;
18001;SDS011;9126;48.160;17.130;2022-09-20T13:15:36;1.25;;;0.40;;
18001;SDS011;9126;48.160;17.130;2022-09-20T13:18:05;1.10;;;0.40;;
18001;SDS011;9126;48.160;17.130;2022-09-20T13:20:32;0.77;;;0.30;;
18001;SDS011;9126;48.160;17.130;2022-09-20T13:23:01;0.90;;;0.43;;
18001;SDS011;9126;48.160;17.130;2022-09-20T13:25:32;0.43;;;0.40;;
18001;SDS011;9126;48.160;17.130;2022-09-20T13:28:04;0.40;;;0.40;;
18001;SDS011;9126;48.160;17.130;2022-09-20T13:30:33;0.75;;;0.50;;
18001;SDS011;9126;48.160;17.130;2022-09-20T13:35:51;0.40;;;0.40;;
18001;SDS011;9126;48.160;17.130;2022-09-20T13:38:21;0.77;;;0.30;;
18001;SDS011;9126;48.160;17.130;2022-09-20T13:40:56;0.50;;;0.50;;
18001;SDS011;9126;48.160;17.130;2022-09-20T13:43:30;0.63;;;0.50;;
18001;SDS011;9126;48.160;17.130;2022-09-20T13:46:05;0.20;;;0.20;;
18001;SDS011;9126;48.160;17.130;2022-09-20T13:48:33;0.77;;;0.52;;
18001;SDS011;9126;48.160;17.130;2022-09-20T13:51:00;1.08;;;0.55;;
18001;SDS011;9126;48.160;17.130;2022-09-20T13:53:28;0.40;;;0.40;;
18001;SDS011;9126;48.160;17.130;2022-09-20T13:55:57;2.30;;;0.40;;
18001;SDS011;9126;48.160;17.130;2022-09-20T13:58:25;1.37;;;0.40;;
18001;SDS011;9126;48.160;17.130;2022-09-20T14:00:56;0.97;;;0.60;;
18001;SDS011;9126;48.160;17.130;2022-09-20T14:03:25;0.57;;;0.50;;
18001;SDS011;9126;48.160;17.130;2022-09-20T14:05:54;1.30;;;0.50;;
18001;SDS011;9126;48.160;17.130;2022-09-20T14:08:25;3.20;;;0.80;;
18001;SDS011;9126;48.160;17.130;2022-09-20T14:11:04;0.50;;;0.50;;
18001;SDS011;9126;48.160;17.130;2022-09-20T14:13:34;1.47;;;0.73;;
18001;SDS011;9126;48.160;17.130;2022-09-20T14:16:05;2.10;;;0.70;;
18001;SDS011;9126;48.160;17.130;2022-09-20T14:18:33;0.60;;;0.60;;
18001;SDS011;9126;48.160;17.130;2022-09-20T14:21:02;1.20;;;1.10;;
18001;SDS011;9126;48.160;17.130;2022-09-20T14:23:31;1.95;;;0.50;;
18001;SDS011;9126;48.160;17.130;2022-09-20T14:26:05;2.13;;;0.60;;
18001;SDS011;9126;48.160;17.130;2022-09-20T14:28:36;0.60;;;0.60;;
18001;SDS011;9126;48.160;17.130;2022-09-20T14:31:05;1.23;;;0.88;;
18001;SDS011;9126;48.160;17.130;2022-09-20T14:33:34;1.60;;;1.50;;
18001;SDS011;9126;48.160;17.130;2022-09-20T14:36:10;1.33;;;1.00;;
18001;SDS011;9126;48.160;17.130;2022-09-20T14:38:41;0.73;;;0.70;;
18001;SDS011;9126;48.160;17.130;2022-09-20T14:41:22;1.80;;;0.80;;
18001;SDS011;9126;48.160;17.130;2022-09-20T14:43:53;2.43;;;1.10;;
18001;SDS011;9126;48.160;17.130;2022-09-20T14:46:27;0.67;;;0.67;;
18001;SDS011;9126;48.160;17.130;2022-09-20T14:51:45;1.20;;;0.63;;
18001;SDS011;9126;48.160;17.130;2022-09-20T14:54:24;1.37;;;0.90;;
18001;SDS011;9126;48.160;17.130;2022-09-20T14:56:58;0.97;;;0.70;;
18001;SDS011;9126;48.160;17.130;2022-09-20T14:59:34;0.97;;;0.87;;
18001;SDS011;9126;48.160;17.130;2022-09-20T15:02:09;0.67;;;0.63;;
18001;SDS011;9126;48.160;17.130;2022-09-20T15:04:39;1.57;;;1.17;;
18001;SDS011;9126;48.160;17.130;2022-09-20T15:07:16;1.13;;;0.90;;
18001;SDS011;9126;48.160;17.130;2022-09-20T15:09:44;0.83;;;0.83;;
18001;SDS011;9126;48.160;17.130;2022-09-20T15:12:13;0.90;;;0.90;;
18001;SDS011;9126;48.160;17.130;2022-09-20T15:14:41;0.90;;;0.90;;
18001;SDS011;9126;48.160;17.130;2022-09-20T15:17:09;3.63;;;1.23;;
18001;SDS011;9126;48.160;17.130;2022-09-20T15:19:40;30.20;;;2.83;;
18001;SDS011;9126;48.160;17.130;2022-09-20T15:22:09;15.77;;;2.57;;
18001;SDS011;9126;48.160;17.130;2022-09-20T15:24:36;18.97;;;3.47;;
18001;SDS011;9126;48.160;17.130;2022-09-20T15:27:04;9.97;;;2.20;;
18001;SDS011;9126;48.160;17.130;2022-09-20T15:29:40;8.77;;;1.63;;
18001;SDS011;9126;48.160;17.130;2022-09-20T15:32:08;3.43;;;1.40;;
18001;SDS011;9126;48.160;17.130;2022-09-20T15:34:36;2.57;;;1.70;;
18001;SDS011;9126;48.160;17.130;2022-09-20T15:37:04;5.73;;;1.97;;
18001;SDS011;9126;48.160;17.130;2022-09-20T15:39:33;7.23;;;1.80;;
18001;SDS011;9126;48.160;17.130;2022-09-20T15:42:03;3.23;;;1.50;;
18001;SDS011;9126;48.160;17.130;2022-09-20T15:44:30;1.80;;;1.70;;
18001;SDS011;9126;48.160;17.130;2022-09-20T15:47:00;2.53;;;1.90;;
18001;SDS011;9126;48.160;17.130;2022-09-20T15:49:29;7.60;;;2.50;;
18001;SDS011;9126;48.160;17.130;2022-09-20T15:51:57;8.13;;;2.03;;
18001;SDS011;9126;48.160;17.130;2022-09-20T15:54:25;4.77;;;2.83;;
18001;SDS011;9126;48.160;17.130;2022-09-20T15:56:52;5.23;;;2.13;;
18001;SDS011;9126;48.160;17.130;2022-09-20T15:59:20;3.33;;;2.13;;
18001;SDS011;9126;48.160;17.130;2022-09-20T16:01:48;6.00;;;2.30;;
18001;SDS011;9126;48.160;17.130;2022-09-20T16:04:17;4.17;;;2.60;;
18001;SDS011;9126;48.160;17.130;2022-09-20T16:06:47;3.23;;;2.50;;
18001;SDS011;9126;48.160;17.130;2022-09-20T16:09:15;2.40;;;2.20;;
18001;SDS011;9126;48.160;17.130;2022-09-20T16:11:43;3.57;;;2.13;;
18001;SDS011;9126;48.160;17.130;2022-09-20T16:14:10;2.77;;;1.70;;
18001;SDS011;9126;48.160;17.130;2022-09-20T16:16:39;2.13;;;1.87;;
18001;SDS011;9126;48.160;17.130;2022-09-20T16:19:06;1.73;;;1.63;;
18001;SDS011;9126;48.160;17.130;2022-09-20T16:21:46;2.67;;;2.20;;
18001;SDS011;9126;48.160;17.130;2022-09-20T16:24:14;3.83;;;3.53;;
18001;SDS011;9126;48.160;17.130;2022-09-20T16:26:42;4.23;;;3.80;;
18001;SDS011;9126;48.160;17.130;2022-09-20T16:29:15;2.63;;;1.50;;
18001;SDS011;9126;48.160;17.130;2022-09-20T16:31:43;2.43;;;1.37;;
18001;SDS011;9126;48.160;17.130;2022-09-20T16:34:17;2.27;;;1.50;;